sensor_id;sensor_type;location;lat;lon;timestamp;P1;durP1;ratioP1;P2;durP2;ratioP2
32329;SDS011;18807;52.434;13.238;2023-02-17T00:05:17;41.57;;;21.47;;
32329;SDS011;18807;52.434;13.238;2023-02-17T00:12:51;34.10;;;17.85;;
32329;SDS011;18807;52.434;13.238;2023-02-17T00:20:28;37.42;;;20.05;;
32329;SDS011;18807;52.434;13.238;2023-02-17T00:28:02;36.50;;;21.02;;
32329;SDS011;18807;52.434;13.238;2023-02-17T00:35:39;34.08;;;18.75;;
32329;SDS011;18807;52.434;13.238;2023-02-17T00:43:13;37.63;;;21.08;;
32329;SDS011;18807;52.434;13.238;2023-02-17T00:50:49;39.37;;;20.57;;
32329;SDS011;18807;52.434;13.238;2023-02-17T00:58:23;43.92;;;20.92;;
32329;SDS011;18807;52.434;13.238;2023-02-17T01:13:37;38.17;;;19.33;;
32329;SDS011;18807;52.434;13.238;2023-02-17T01:21:16;39.73;;;22.17;;
32329;SDS011;18807;52.434;13.238;2023-02-17T01:28:51;35.22;;;18.75;;
32329;SDS011;18807;52.434;13.238;2023-02-17T01:44:08;36.17;;;21.17;;
32329;SDS011;18807;52.434;13.238;2023-02-17T01:51:48;39.72;;;20.83;;
32329;SDS011;18807;52.434;13.238;2023-02-17T01:59:25;40.35;;;22.05;;
32329;SDS011;18807;52.434;13.238;2023-02-17T02:07:02;44.88;;;21.23;;
32329;SDS011;18807;52.434;13.238;2023-02-17T02:14:38;36.28;;;21.35;;
32329;SDS011;18807;52.434;13.238;2023-02-17T02:22:20;43.93;;;23.10;;
32329;SDS011;18807;52.434;13.238;2023-02-17T02:30:22;46.33;;;24.08;;
32329;SDS011;18807;52.434;13.238;2023-02-17T02:38:19;42.38;;;21.95;;
32329;SDS011;18807;52.434;13.238;2023-02-17T02:45:58;35.95;;;19.90;;
32329;SDS011;18807;52.434;13.238;2023-02-17T02:53:47;43.93;;;23.63;;
32329;SDS011;18807;52.434;13.238;2023-02-17T03:01:33;41.55;;;23.38;;
32329;SDS011;18807;52.434;13.238;2023-02-17T03:09:18;44.58;;;23.63;;
32329;SDS011;18807;52.434;13.238;2023-02-17T03:16:54;46.33;;;23.20;;
32329;SDS011;18807;52.434;13.238;2023-02-17T03:24:30;46.60;;;24.10;;
32329;SDS011;18807;52.434;13.238;2023-02-17T03:32:04;44.90;;;22.58;;
32329;SDS011;18807;52.434;13.238;2023-02-17T03:39:41;46.72;;;25.73;;
32329;SDS011;18807;52.434;13.238;2023-02-17T03:47:15;48.60;;;25.10;;
32329;SDS011;18807;52.434;13.238;2023-02-17T03:54:50;46.93;;;24.17;;
32329;SDS011;18807;52.434;13.238;2023-02-17T04:02:24;50.70;;;25.92;;
32329;SDS011;18807;52.434;13.238;2023-02-17T04:10:00;51.63;;;26.53;;
32329;SDS011;18807;52.434;13.238;2023-02-17T04:17:37;58.35;;;28.10;;
32329;SDS011;18807;52.434;13.238;2023-02-17T04:25:13;47.07;;;24.00;;
32329;SDS011;18807;52.434;13.238;2023-02-17T04:32:47;50.47;;;25.75;;
32329;SDS011;18807;52.434;13.238;2023-02-17T04:40:22;46.53;;;24.67;;
32329;SDS011;18807;52.434;13.238;2023-02-17T04:47:56;44.15;;;23.90;;
32329;SDS011;18807;52.434;13.238;2023-02-17T04:55:32;47.53;;;25.10;;
32329;SDS011;18807;52.434;13.238;2023-02-17T05:03:06;46.30;;;23.52;;
32329;SDS011;18807;52.434;13.238;2023-02-17T05:10:41;51.67;;;26.57;;
32329;SDS011;18807;52.434;13.238;2023-02-17T05:18:16;46.13;;;24.25;;
32329;SDS011;18807;52.434;13.238;2023-02-17T05:25:51;47.40;;;24.90;;
32329;SDS011;18807;52.434;13.238;2023-02-17T05:33:25;47.70;;;23.88;;
32329;SDS011;18807;52.434;13.238;2023-02-17T05:41:01;48.13;;;24.77;;
32329;SDS011;18807;52.434;13.238;2023-02-17T05:48:35;49.67;;;24.30;;
32329;SDS011;18807;52.434;13.238;2023-02-17T05:56:10;45.40;;;24.43;;
32329;SDS011;18807;52.434;13.238;2023-02-17T06:03:44;43.63;;;23.30;;
32329;SDS011;18807;52.434;13.238;2023-02-17T06:11:19;47.55;;;23.25;;
32329;SDS011;18807;52.434;13.238;2023-02-17T06:18:53;47.20;;;23.40;;
32329;SDS011;18807;52.434;13.238;2023-02-17T06:26:30;41.08;;;22.25;;
32329;SDS011;18807;52.434;13.238;2023-02-17T06:34:03;40.13;;;22.00;;
32329;SDS011;18807;52.434;13.238;2023-02-17T06:41:39;43.47;;;23.97;;
32329;SDS011;18807;52.434;13.238;2023-02-17T06:49:14;43.55;;;23.40;;
32329;SDS011;18807;52.434;13.238;2023-02-17T06:56:49;38.60;;;20.57;;
32329;SDS011;18807;52.434;13.238;2023-02-17T07:04:23;33.25;;;18.13;;
32329;SDS011;18807;52.434;13.238;2023-02-17T07:11:58;38.10;;;19.67;;
32329;SDS011;18807;52.434;13.238;2023-02-17T07:19:33;34.65;;;19.25;;
32329;SDS011;18807;52.434;13.238;2023-02-17T07:27:09;36.83;;;19.57;;
32329;SDS011;18807;52.434;13.238;2023-02-17T07:34:42;32.35;;;18.75;;
32329;SDS011;18807;52.434;13.238;2023-02-17T07:42:35;33.42;;;18.67;;
32329;SDS011;18807;52.434;13.238;2023-02-17T07:50:09;33.45;;;18.80;;
32329;SDS011;18807;52.434;13.238;2023-02-17T07:57:45;29.80;;;16.63;;
32329;SDS011;18807;52.434;13.238;2023-02-17T08:14:13;30.05;;;17.92;;
32329;SDS011;18807;52.434;13.238;2023-02-17T08:30:56;22.88;;;14.40;;
32329;SDS011;18807;52.434;13.238;2023-02-17T08:38:47;24.92;;;15.85;;
32329;SDS011;18807;52.434;13.238;2023-02-17T08:46:24;26.58;;;16.95;;
32329;SDS011;18807;52.434;13.238;2023-02-17T08:53:59;23.75;;;15.95;;
32329;SDS011;18807;52.434;13.238;2023-02-17T09:01:36;26.90;;;16.17;;
32329;SDS011;18807;52.434;13.238;2023-02-17T09:09:12;22.98;;;14.00;;
32329;SDS011;18807;52.434;13.238;2023-02-17T09:16:49;26.10;;;15.15;;
32329;SDS011;18807;52.434;13.238;2023-02-17T09:24:23;29.15;;;15.95;;
32329;SDS011;18807;52.434;13.238;2023-02-17T09:31:59;25.70;;;15.33;;
32329;SDS011;18807;52.434;13.238;2023-02-17T09:39:34;27.20;;;17.35;;
32329;SDS011;18807;52.434;13.238;2023-02-17T09:47:11;31.43;;;17.37;;
32329;SDS011;18807;52.434;13.238;2023-02-17T09:54:52;29.38;;;17.95;;
32329;SDS011;18807;52.434;13.238;2023-02-17T10:02:38;31.08;;;18.23;;
32329;SDS011;18807;52.434;13.238;2023-02-17T10:10:20;31.58;;;17.75;;
32329;SDS011;18807;52.434;13.238;2023-02-17T10:18:01;31.45;;;18.38;;
32329;SDS011;18807;52.434;13.238;2023-02-17T10:33:49;35.20;;;19.13;;
32329;SDS011;18807;52.434;13.238;2023-02-17T10:41:44;29.08;;;17.58;;
32329;SDS011;18807;52.434;13.238;2023-02-17T10:49:24;31.42;;;18.70;;
32329;SDS011;18807;52.434;13.238;2023-02-17T10:57:02;30.88;;;17.48;;
32329;SDS011;18807;52.434;13.238;2023-02-17T11:04:42;35.55;;;20.17;;
32329;SDS011;18807;52.434;13.238;2023-02-17T11:12:19;32.30;;;17.90;;
32329;SDS011;18807;52.434;13.238;2023-02-17T11:19:59;32.25;;;19.27;;
32329;SDS011;18807;52.434;13.238;2023-02-17T11:27:36;30.20;;;17.83;;
32329;SDS011;18807;52.434;13.238;2023-02-17T11:35:21;28.37;;;17.50;;
32329;SDS011;18807;52.434;13.238;2023-02-17T11:42:59;24.35;;;16.23;;
32329;SDS011;18807;52.434;13.238;2023-02-17T11:50:36;26.45;;;16.02;;
32329;SDS011;18807;52.434;13.238;2023-02-17T11:58:22;24.55;;;14.30;;
32329;SDS011;18807;52.434;13.238;2023-02-17T12:06:09;21.73;;;13.95;;
32329;SDS011;18807;52.434;13.238;2023-02-17T12:13:52;19.27;;;11.75;;
32329;SDS011;18807;52.434;13.238;2023-02-17T12:21:41;20.48;;;11.23;;
32329;SDS011;18807;52.434;13.238;2023-02-17T12:29:28;13.77;;;10.23;;
32329;SDS011;18807;52.434;13.238;2023-02-17T12:37:34;15.98;;;10.55;;
32329;SDS011;18807;52.434;13.238;2023-02-17T12:45:36;12.65;;;8.25;;
32329;SDS011;18807;52.434;13.238;2023-02-17T12:53:17;10.95;;;7.55;;
32329;SDS011;18807;52.434;13.238;2023-02-17T13:01:02;11.35;;;7.43;;
32329;SDS011;18807;52.434;13.238;2023-02-17T13:08:42;11.30;;;8.15;;
32329;SDS011;18807;52.434;13.238;2023-02-17T13:16:21;8.48;;;6.00;;
32329;SDS011;18807;52.434;13.238;2023-02-17T13:24:00;10.93;;;7.28;;
32329;SDS011;18807;52.434;13.238;2023-02-17T13:31:43;8.95;;;5.68;;
32329;SDS011;18807;52.434;13.238;2023-02-17T13:39:31;6.35;;;5.10;;
32329;SDS011;18807;52.434;13.238;2023-02-17T13:47:10;9.27;;;5.68;;
32329;SDS011;18807;52.434;13.238;2023-02-17T13:54:53;6.70;;;3.83;;
32329;SDS011;18807;52.434;13.238;2023-02-17T14:02:29;5.45;;;3.90;;
32329;SDS011;18807;52.434;13.238;2023-02-17T14:18:10;7.60;;;4.18;;
32329;SDS011;18807;52.434;13.238;2023-02-17T14:25:47;5.05;;;3.95;;
32329;SDS011;18807;52.434;13.238;2023-02-17T14:33:23;7.80;;;4.97;;
32329;SDS011;18807;52.434;13.238;2023-02-17T14:40:58;6.50;;;4.90;;
32329;SDS011;18807;52.434;13.238;2023-02-17T14:48:33;7.00;;;5.22;;
32329;SDS011;18807;52.434;13.238;2023-02-17T14:56:26;10.23;;;6.78;;
32329;SDS011;18807;52.434;13.238;2023-02-17T15:04:04;13.27;;;7.93;;
32329;SDS011;18807;52.434;13.238;2023-02-17T15:11:39;13.07;;;8.93;;
32329;SDS011;18807;52.434;13.238;2023-02-17T15:19:17;13.43;;;8.40;;
32329;SDS011;18807;52.434;13.238;2023-02-17T15:26:54;14.45;;;9.77;;
32329;SDS011;18807;52.434;13.238;2023-02-17T15:34:29;16.20;;;10.10;;
32329;SDS011;18807;52.434;13.238;2023-02-17T15:42:09;17.17;;;10.90;;
32329;SDS011;18807;52.434;13.238;2023-02-17T15:49:45;15.65;;;10.95;;
32329;SDS011;18807;52.434;13.238;2023-02-17T15:57:21;15.50;;;10.13;;
32329;SDS011;18807;52.434;13.238;2023-02-17T16:04:57;17.30;;;10.90;;
32329;SDS011;18807;52.434;13.238;2023-02-17T16:12:32;17.50;;;10.52;;
32329;SDS011;18807;52.434;13.238;2023-02-17T16:20:09;16.00;;;10.52;;
32329;SDS011;18807;52.434;13.238;2023-02-17T16:27:50;17.27;;;9.50;;
32329;SDS011;18807;52.434;13.238;2023-02-17T16:35:26;13.77;;;8.68;;
32329;SDS011;18807;52.434;13.238;2023-02-17T16:43:03;16.05;;;8.27;;
32329;SDS011;18807;52.434;13.238;2023-02-17T16:50:37;13.52;;;6.85;;
32329;SDS011;18807;52.434;13.238;2023-02-17T16:58:14;11.13;;;6.95;;
32329;SDS011;18807;52.434;13.238;2023-02-17T17:06:12;9.57;;;6.28;;
32329;SDS011;18807;52.434;13.238;2023-02-17T17:13:51;11.13;;;6.45;;
32329;SDS011;18807;52.434;13.238;2023-02-17T17:21:27;11.45;;;5.95;;
32329;SDS011;18807;52.434;13.238;2023-02-17T17:29:02;6.77;;;4.57;;
32329;SDS011;18807;52.434;13.238;2023-02-17T17:36:37;7.18;;;4.78;;
32329;SDS011;18807;52.434;13.238;2023-02-17T17:44:14;5.65;;;4.03;;
32329;SDS011;18807;52.434;13.238;2023-02-17T17:51:47;5.82;;;4.10;;
32329;SDS011;18807;52.434;13.238;2023-02-17T17:59:24;5.55;;;3.78;;
32329;SDS011;18807;52.434;13.238;2023-02-17T18:06:58;5.63;;;3.25;;
32329;SDS011;18807;52.434;13.238;2023-02-17T18:14:35;6.43;;;3.77;;
32329;SDS011;18807;52.434;13.238;2023-02-17T18:22:11;6.68;;;3.97;;
32329;SDS011;18807;52.434;13.238;2023-02-17T18:29:47;9.73;;;3.50;;
32329;SDS011;18807;52.434;13.238;2023-02-17T18:37:38;4.60;;;2.55;;
32329;SDS011;18807;52.434;13.238;2023-02-17T18:45:14;5.82;;;2.63;;
32329;SDS011;18807;52.434;13.238;2023-02-17T18:52:49;8.57;;;3.50;;
32329;SDS011;18807;52.434;13.238;2023-02-17T19:00:25;7.63;;;4.15;;
32329;SDS011;18807;52.434;13.238;2023-02-17T19:07:59;5.25;;;3.15;;
32329;SDS011;18807;52.434;13.238;2023-02-17T19:15:52;6.72;;;3.63;;
32329;SDS011;18807;52.434;13.238;2023-02-17T19:23:25;2.85;;;1.23;;
32329;SDS011;18807;52.434;13.238;2023-02-17T19:31:03;4.00;;;1.33;;
32329;SDS011;18807;52.434;13.238;2023-02-17T19:38:38;7.38;;;1.20;;
32329;SDS011;18807;52.434;13.238;2023-02-17T19:46:31;4.05;;;0.80;;
32329;SDS011;18807;52.434;13.238;2023-02-17T19:54:05;3.90;;;1.23;;
32329;SDS011;18807;52.434;13.238;2023-02-17T20:01:41;3.27;;;0.77;;
32329;SDS011;18807;52.434;13.238;2023-02-17T20:09:16;5.95;;;2.45;;
32329;SDS011;18807;52.434;13.238;2023-02-17T20:16:52;10.00;;;0.80;;
32329;SDS011;18807;52.434;13.238;2023-02-17T20:24:27;5.20;;;0.80;;
32329;SDS011;18807;52.434;13.238;2023-02-17T20:32:03;6.60;;;0.93;;
32329;SDS011;18807;52.434;13.238;2023-02-17T20:39:38;7.13;;;2.15;;
32329;SDS011;18807;52.434;13.238;2023-02-17T20:47:15;10.27;;;1.73;;
32329;SDS011;18807;52.434;13.238;2023-02-17T20:54:49;6.28;;;1.30;;
32329;SDS011;18807;52.434;13.238;2023-02-17T21:02:24;10.03;;;1.40;;
32329;SDS011;18807;52.434;13.238;2023-02-17T21:09:58;6.63;;;1.33;;
32329;SDS011;18807;52.434;13.238;2023-02-17T21:17:34;9.73;;;1.55;;
32329;SDS011;18807;52.434;13.238;2023-02-17T21:25:08;6.97;;;1.45;;
32329;SDS011;18807;52.434;13.238;2023-02-17T21:32:44;6.45;;;1.23;;
32329;SDS011;18807;52.434;13.238;2023-02-17T21:40:18;10.90;;;2.10;;
32329;SDS011;18807;52.434;13.238;2023-02-17T21:47:54;9.13;;;1.40;;
32329;SDS011;18807;52.434;13.238;2023-02-17T21:55:28;9.18;;;1.48;;
32329;SDS011;18807;52.434;13.238;2023-02-17T22:03:03;4.70;;;1.30;;
32329;SDS011;18807;52.434;13.238;2023-02-17T22:10:37;5.18;;;1.02;;
32329;SDS011;18807;52.434;13.238;2023-02-17T22:25:47;9.47;;;1.50;;
32329;SDS011;18807;52.434;13.238;2023-02-17T22:33:23;9.70;;;1.50;;
32329;SDS011;18807;52.434;13.238;2023-02-17T22:40:56;8.32;;;1.55;;
32329;SDS011;18807;52.434;13.238;2023-02-17T22:48:33;7.13;;;1.40;;
32329;SDS011;18807;52.434;13.238;2023-02-17T22:56:08;7.10;;;1.33;;
32329;SDS011;18807;52.434;13.238;2023-02-17T23:03:44;7.40;;;1.42;;
32329;SDS011;18807;52.434;13.238;2023-02-17T23:11:21;11.73;;;1.85;;
32329;SDS011;18807;52.434;13.238;2023-02-17T23:19:13;11.90;;;1.85;;
32329;SDS011;18807;52.434;13.238;2023-02-17T23:26:48;14.02;;;2.30;;
32329;SDS011;18807;52.434;13.238;2023-02-17T23:34:24;10.60;;;2.05;;
32329;SDS011;18807;52.434;13.238;2023-02-17T23:41:59;10.63;;;1.63;;
32329;SDS011;18807;52.434;13.238;2023-02-17T23:49:34;11.70;;;2.47;;
32329;SDS011;18807;52.434;13.238;2023-02-17T23:57:08;10.32;;;2.10;;
